Terminal Aerodrome Forecast
Issued by NWS Wilmington, OH

Current Version | Previous Version | Graphics & Text | Print | Product List | Glossary On
Versions: 1 2 3 4 5 6 7 8 9 10 11 12 13 14 15 16 17 18 19 20
000
FTUS41 KILN 260858 AAB
TAFILN
TAF AMD
KILN 260858Z 2609/2706 00000KT P6SM VCSH SCT050 OVC080
     FM261100 16007KT P6SM -SHRA OVC050
      TEMPO 2611/2615 4SM -SHRA OVC015
     FM261500 17010KT P6SM -SHRA OVC035
     FM261800 19012KT P6SM -SHRA VCTS OVC035CB
     FM262300 20008KT P6SM VCSH OVC050
     FM270000 20007KT P6SM OVC050=

USA.gov is the U.S. government's official web portal to all federal, state and local government web resources and services.